Time;durP1;ratioP1;P1;durP2;ratioP2;P2;SDS_P1;SDS_P2;PMS_P1;PMS_P2;Temp;Humidity;BMP_temperature;BMP_pressure;BME280_temperature;BME280_humidity;BME280_pressure;Samples;Min_cycle;Max_cycle;Signal;HPM_P1;HPM_P2
2022/07/02 00:00:01;;;;;;;5.63;3.95;;;;;;;;;;5016879;28;20059;-82
2022/07/02 00:02:41;;;;;;;3.30;3.20;;;;;;;;;;5028577;28;20119;-82
2022/07/02 00:05:12;;;;;;;4.20;3.90;;;;;;;;;;5031585;28;20041;-82
2022/07/02 00:07:39;;;;;;;4.88;4.47;;;;;;;;;;5019522;28;20060;-83
2022/07/02 00:10:07;;;;;;;4.00;3.80;;;;;;;;;;5022767;28;20065;-83
2022/07/02 00:12:34;;;;;;;5.43;5.00;;;;;;;;;;5013625;28;20132;-82
2022/07/02 00:15:02;;;;;;;4.47;4.18;;;;;;;;;;5029481;28;20045;-83
2022/07/02 00:17:30;;;;;;;4.90;4.60;;;;;;;;;;5005131;28;20102;-82
2022/07/02 00:19:58;;;;;;;5.72;5.10;;;;;;;;;;5020567;28;20041;-81
2022/07/02 00:22:27;;;;;;;5.78;5.20;;;;;;;;;;5020697;28;20064;-82
2022/07/02 00:24:54;;;;;;;6.40;5.75;;;;;;;;;;5037939;28;20060;-82
2022/07/02 00:27:22;;;;;;;4.95;4.63;;;;;;;;;;5020385;28;20128;-82
2022/07/02 00:29:51;;;;;;;5.30;4.85;;;;;;;;;;5018225;28;20053;-81
2022/07/02 00:32:19;;;;;;;7.05;6.47;;;;;;;;;;5019961;28;20053;-81
2022/07/02 00:34:47;;;;;;;8.40;6.18;;;;;;;;;;5023648;28;20046;-83
2022/07/02 00:37:14;;;;;;;7.35;6.50;;;;;;;;;;5009288;28;20045;-81
2022/07/02 00:39:42;;;;;;;4.68;4.38;;;;;;;;;;5020919;28;20056;-83
2022/07/02 00:42:10;;;;;;;13.25;7.57;;;;;;;;;;5037024;28;20492;-83
2022/07/02 00:44:38;;;;;;;29.40;5.28;;;;;;;;;;5020969;28;20042;-84
2022/07/02 00:47:07;;;;;;;28.50;5.10;;;;;;;;;;5019415;28;20045;-83
2022/07/02 00:49:35;;;;;;;25.10;5.70;;;;;;;;;;5025019;28;20053;-83
2022/07/02 00:52:04;;;;;;;9.15;6.75;;;;;;;;;;5026314;28;20502;-83
2022/07/02 00:54:31;;;;;;;4.85;4.22;;;;;;;;;;5024600;28;20041;-84
2022/07/02 00:56:59;;;;;;;6.25;5.38;;;;;;;;;;5022715;28;20338;-83
2022/07/02 00:59:26;;;;;;;6.78;6.05;;;;;;;;;;5022366;28;20274;-84
2022/07/02 01:01:54;;;;;;;6.50;6.00;;;;;;;;;;5047706;28;20103;-83
2022/07/02 01:04:23;;;;;;;5.20;4.60;;;;;;;;;;5028909;28;20046;-83
2022/07/02 01:06:51;;;;;;;15.77;5.38;;;;;;;;;;5013833;28;20563;-83
2022/07/02 01:12:05;;;;;;;13.93;6.10;;;;;;;;;;5029153;28;20108;-83
2022/07/02 01:14:33;;;;;;;7.53;5.10;;;;;;;;;;5010813;28;20107;-83
2022/07/02 01:17:01;;;;;;;8.07;5.72;;;;;;;;;;5012239;28;20508;-83
2022/07/02 01:19:28;;;;;;;7.30;5.35;;;;;;;;;;5010735;28;20053;-83
2022/07/02 01:22:31;;;;;;;6.15;5.68;;;;;;;;;;5032781;28;20506;-83
2022/07/02 01:24:58;;;;;;;8.63;5.97;;;;;;;;;;4993640;28;20048;-82
2022/07/02 01:27:25;;;;;;;8.20;7.50;;;;;;;;;;5029546;28;20050;-83
2022/07/02 01:29:53;;;;;;;8.63;6.75;;;;;;;;;;5015102;28;20099;-83
2022/07/02 01:32:20;;;;;;;6.70;6.15;;;;;;;;;;5003127;28;20053;-83
2022/07/02 01:34:54;;;;;;;7.80;6.85;;;;;;;;;;5029960;28;20038;-82
2022/07/02 01:37:22;;;;;;;8.93;7.00;;;;;;;;;;5041321;22;20047;-85
2022/07/02 01:39:50;;;;;;;4.25;4.03;;;;;;;;;;5024239;28;20449;-86
2022/07/02 01:42:17;;;;;;;5.85;5.45;;;;;;;;;;5038170;28;20051;-84
2022/07/02 01:44:45;;;;;;;4.20;3.90;;;;;;;;;;5047574;28;20038;-85
2022/07/02 01:47:13;;;;;;;4.47;4.18;;;;;;;;;;5046934;28;20041;-84
2022/07/02 01:49:41;;;;;;;5.82;4.60;;;;;;;;;;5046628;28;20060;-85
2022/07/02 01:52:09;;;;;;;5.30;4.80;;;;;;;;;;5030971;28;20509;-85
2022/07/02 01:54:37;;;;;;;5.90;4.50;;;;;;;;;;5029923;28;20053;-85
2022/07/02 01:57:05;;;;;;;4.53;4.22;;;;;;;;;;5027664;28;20041;-85
2022/07/02 01:59:32;;;;;;;4.60;4.30;;;;;;;;;;5031163;28;20030;-85
2022/07/02 02:02:00;;;;;;;5.82;4.53;;;;;;;;;;5030689;28;20128;-85
2022/07/02 02:04:27;;;;;;;5.65;5.13;;;;;;;;;;5029400;28;20366;-85
2022/07/02 02:06:55;;;;;;;5.43;5.03;;;;;;;;;;5028819;28;20041;-84
2022/07/02 02:09:22;;;;;;;5.45;5.05;;;;;;;;;;5042296;28;20049;-84
2022/07/02 02:11:49;;;;;;;5.40;5.03;;;;;;;;;;5045132;28;20103;-84
2022/07/02 02:14:17;;;;;;;5.28;4.88;;;;;;;;;;5045066;28;20528;-84
2022/07/02 02:16:44;;;;;;;5.70;5.30;;;;;;;;;;5044854;28;20037;-84
2022/07/02 02:19:11;;;;;;;6.63;5.95;;;;;;;;;;5027284;28;20149;-84
2022/07/02 02:21:39;;;;;;;4.90;4.60;;;;;;;;;;5029859;28;20153;-84
2022/07/02 02:24:06;;;;;;;6.20;5.63;;;;;;;;;;5029789;28;20048;-84
2022/07/02 02:26:34;;;;;;;5.22;4.93;;;;;;;;;;5045836;28;20471;-84
2022/07/02 02:29:01;;;;;;;6.15;5.65;;;;;;;;;;5028937;28;20501;-84
2022/07/02 02:31:29;;;;;;;7.45;5.97;;;;;;;;;;5045883;28;20064;-85
2022/07/02 02:33:56;;;;;;;5.28;4.78;;;;;;;;;;5030475;28;20122;-84
2022/07/02 02:36:23;;;;;;;5.15;4.80;;;;;;;;;;5047233;28;20037;-84
2022/07/02 02:38:51;;;;;;;4.85;4.55;;;;;;;;;;5027308;28;20049;-85
2022/07/02 02:41:18;;;;;;;5.45;4.90;;;;;;;;;;5045165;28;20042;-84
2022/07/02 02:43:45;;;;;;;5.40;5.00;;;;;;;;;;5028823;28;20050;-84
2022/07/02 02:46:13;;;;;;;5.97;5.47;;;;;;;;;;5045079;28;20057;-84
2022/07/02 02:48:40;;;;;;;6.32;5.18;;;;;;;;;;5028220;28;20129;-84
2022/07/02 02:51:09;;;;;;;5.65;4.80;;;;;;;;;;5026436;28;20057;-85
2022/07/02 02:53:37;;;;;;;5.07;4.78;;;;;;;;;;5044138;28;20045;-84
2022/07/02 02:56:05;;;;;;;5.75;4.68;;;;;;;;;;5028085;28;20041;-83
2022/07/02 02:58:32;;;;;;;4.80;4.45;;;;;;;;;;5044131;28;20056;-82
2022/07/02 03:00:59;;;;;;;5.22;4.82;;;;;;;;;;5029208;28;20052;-83
2022/07/02 03:03:27;;;;;;;5.47;4.97;;;;;;;;;;5028586;28;20057;-82
2022/07/02 03:05:54;;;;;;;8.57;5.72;;;;;;;;;;5028384;28;20133;-83
2022/07/02 03:08:22;;;;;;;7.10;6.45;;;;;;;;;;5043345;28;20519;-83
2022/07/02 03:10:50;;;;;;;6.55;5.95;;;;;;;;;;5042999;28;20038;-82
2022/07/02 03:13:17;;;;;;;6.20;5.70;;;;;;;;;;5027083;28;20140;-83
2022/07/02 03:15:44;;;;;;;6.20;5.60;;;;;;;;;;5027908;28;20049;-82
2022/07/02 03:18:12;;;;;;;7.72;6.30;;;;;;;;;;5043974;28;20124;-82
2022/07/02 03:20:39;;;;;;;6.22;5.72;;;;;;;;;;5030508;28;20048;-82
2022/07/02 03:23:06;;;;;;;6.22;5.72;;;;;;;;;;5043894;28;20563;-83
2022/07/02 03:25:34;;;;;;;7.30;6.53;;;;;;;;;;5029781;28;20120;-83
2022/07/02 03:28:01;;;;;;;5.38;4.97;;;;;;;;;;5028508;28;20132;-82
2022/07/02 03:30:29;;;;;;;4.75;4.38;;;;;;;;;;5040740;28;20050;-82
2022/07/02 03:32:57;;;;;;;5.75;4.90;;;;;;;;;;5024700;28;20056;-83
2022/07/02 03:35:24;;;;;;;5.65;5.15;;;;;;;;;;5026419;28;20045;-83
2022/07/02 03:37:52;;;;;;;5.15;3.97;;;;;;;;;;5052521;28;20033;-83
2022/07/02 03:40:19;;;;;;;3.95;3.72;;;;;;;;;;5031740;28;20047;-83
2022/07/02 03:42:46;;;;;;;5.00;4.65;;;;;;;;;;5049189;28;20065;-82
2022/07/02 03:45:14;;;;;;;5.35;4.85;;;;;;;;;;5055903;28;20033;-82
2022/07/02 03:47:41;;;;;;;6.20;5.55;;;;;;;;;;5055884;28;20056;-82
2022/07/02 03:50:09;;;;;;;4.55;4.25;;;;;;;;;;5050620;28;20152;-84
2022/07/02 03:52:38;;;;;;;7.30;5.47;;;;;;;;;;5051148;28;20037;-84
2022/07/02 03:55:06;;;;;;;6.25;5.65;;;;;;;;;;5030874;28;20057;-83
2022/07/02 03:57:34;;;;;;;4.85;4.43;;;;;;;;;;5025972;28;20045;-83
2022/07/02 04:00:01;;;;;;;5.90;5.40;;;;;;;;;;5024116;28;20041;-82
2022/07/02 04:02:38;;;;;;;4.35;4.05;;;;;;;;;;5049117;28;20116;-83
2022/07/02 04:05:14;;;;;;;5.45;5.05;;;;;;;;;;5028270;28;20079;-82
2022/07/02 04:07:43;;;;;;;5.38;4.88;;;;;;;;;;5008570;28;20046;-84
2022/07/02 04:10:13;;;;;;;6.28;5.38;;;;;;;;;;5028492;28;20054;-83
2022/07/02 04:12:41;;;;;;;6.22;5.82;;;;;;;;;;5027791;28;20057;-83
2022/07/02 04:15:09;;;;;;;5.65;5.25;;;;;;;;;;5027902;28;20072;-83
2022/07/02 04:17:36;;;;;;;5.30;4.90;;;;;;;;;;5027690;28;20045;-83
2022/07/02 04:20:04;;;;;;;5.60;5.20;;;;;;;;;;5030587;28;20150;-83
2022/07/02 04:22:32;;;;;;;6.35;5.35;;;;;;;;;;5042590;28;20112;-83
2022/07/02 04:24:59;;;;;;;6.57;5.97;;;;;;;;;;5027150;28;20056;-83
2022/07/02 04:27:27;;;;;;;4.82;4.50;;;;;;;;;;5040649;28;20045;-84
2022/07/02 04:29:54;;;;;;;5.13;4.63;;;;;;;;;;5010621;28;20123;-83
2022/07/02 04:32:21;;;;;;;8.18;5.18;;;;;;;;;;5024095;28;20111;-83
2022/07/02 04:34:49;;;;;;;4.68;4.28;;;;;;;;;;5028373;28;20049;-84
2022/07/02 04:37:16;;;;;;;6.03;4.07;;;;;;;;;;5025233;28;20050;-83
2022/07/02 04:39:57;;;;;;;6.03;4.88;;;;;;;;;;5042879;28;20057;-82
2022/07/02 04:42:32;;;;;;;5.95;5.45;;;;;;;;;;5010236;28;20029;-83
2022/07/02 04:45:00;;;;;;;6.53;5.43;;;;;;;;;;5025104;28;20871;-84
2022/07/02 04:47:27;;;;;;;6.07;5.50;;;;;;;;;;5044065;28;20496;-84
2022/07/02 04:50:05;;;;;;;5.43;5.03;;;;;;;;;;5012419;28;20060;-84
2022/07/02 04:52:33;;;;;;;5.35;4.95;;;;;;;;;;5028008;28;20515;-84
2022/07/02 04:55:01;;;;;;;5.55;5.25;;;;;;;;;;5031283;28;20136;-84
2022/07/02 04:57:32;;;;;;;5.68;5.13;;;;;;;;;;5027648;28;20133;-84
2022/07/02 05:00:05;;;;;;;5.57;5.18;;;;;;;;;;5024866;28;20049;-84
2022/07/02 05:02:34;;;;;;;6.25;5.70;;;;;;;;;;5042858;28;20097;-84
2022/07/02 05:05:04;;;;;;;5.70;5.30;;;;;;;;;;5040604;28;20045;-83
2022/07/02 05:07:31;;;;;;;7.60;6.00;;;;;;;;;;5027889;28;20057;-85
2022/07/02 05:09:58;;;;;;;7.43;5.50;;;;;;;;;;5027329;28;20041;-84
2022/07/02 05:12:26;;;;;;;6.10;5.70;;;;;;;;;;5028279;28;20496;-84
2022/07/02 05:14:53;;;;;;;6.00;5.45;;;;;;;;;;5044103;28;20419;-85
2022/07/02 05:17:20;;;;;;;6.50;5.90;;;;;;;;;;5045863;28;20117;-83
2022/07/02 05:19:48;;;;;;;6.72;6.22;;;;;;;;;;5043731;28;20057;-84
2022/07/02 05:22:15;;;;;;;5.97;5.57;;;;;;;;;;5027085;28;20064;-83
2022/07/02 05:24:42;;;;;;;6.93;6.43;;;;;;;;;;5043789;28;20041;-82
2022/07/02 05:27:10;;;;;;;7.20;5.70;;;;;;;;;;5029746;28;20694;-82
2022/07/02 05:29:37;;;;;;;7.03;6.53;;;;;;;;;;5028254;28;20038;-83
2022/07/02 05:32:05;;;;;;;7.28;6.70;;;;;;;;;;5026667;28;20077;-83
2022/07/02 05:34:33;;;;;;;6.90;6.40;;;;;;;;;;5042728;28;20501;-83
2022/07/02 05:37:00;;;;;;;7.10;6.53;;;;;;;;;;5026419;28;20048;-82
2022/07/02 05:39:27;;;;;;;6.57;6.07;;;;;;;;;;5042678;28;20063;-83
2022/07/02 05:41:55;;;;;;;7.30;5.32;;;;;;;;;;5032910;28;23117;-83
2022/07/02 05:44:22;;;;;;;5.45;5.07;;;;;;;;;;5032677;28;20045;-84
2022/07/02 05:46:50;;;;;;;4.93;4.63;;;;;;;;;;5027882;28;20060;-83
2022/07/02 05:49:17;;;;;;;6.38;5.78;;;;;;;;;;5037508;28;20048;-84
2022/07/02 05:51:44;;;;;;;5.65;5.15;;;;;;;;;;5034529;28;20057;-83
2022/07/02 05:54:12;;;;;;;5.35;5.05;;;;;;;;;;5034038;28;20049;-82
2022/07/02 05:56:39;;;;;;;4.93;4.63;;;;;;;;;;5046996;28;20091;-84
2022/07/02 05:59:07;;;;;;;5.25;4.85;;;;;;;;;;5028994;28;20041;-83
2022/07/02 06:01:34;;;;;;;5.50;5.10;;;;;;;;;;5027859;28;20047;-83
2022/07/02 06:04:02;;;;;;;5.50;5.03;;;;;;;;;;5040532;28;20045;-84
2022/07/02 06:09:15;;;;;;;4.90;4.60;;;;;;;;;;5040604;28;20045;-82
2022/07/02 06:11:42;;;;;;;5.45;4.43;;;;;;;;;;5040340;28;20077;-83
2022/07/02 06:14:10;;;;;;;4.90;4.32;;;;;;;;;;5033959;28;20021;-86
2022/07/02 06:16:38;;;;;;;4.43;4.07;;;;;;;;;;5026411;28;20045;-83
2022/07/02 06:19:07;;;;;;;4.80;4.47;;;;;;;;;;5044891;28;20388;-82
2022/07/02 06:21:37;;;;;;;6.03;5.35;;;;;;;;;;5045269;28;20069;-82
2022/07/02 06:24:04;;;;;;;4.95;4.60;;;;;;;;;;5030123;28;20034;-82
2022/07/02 06:26:32;;;;;;;4.60;4.30;;;;;;;;;;5034459;28;20064;-82
2022/07/02 06:28:59;;;;;;;5.50;5.15;;;;;;;;;;5046580;28;20501;-83
2022/07/02 06:31:26;;;;;;;5.00;4.70;;;;;;;;;;5030730;28;20104;-83
2022/07/02 06:33:54;;;;;;;4.97;4.68;;;;;;;;;;5033307;28;20413;-83
2022/07/02 06:36:24;;;;;;;4.53;4.22;;;;;;;;;;5030809;28;20061;-82
2022/07/02 06:38:52;;;;;;;4.80;4.40;;;;;;;;;;5027942;28;20157;-83
2022/07/02 06:44:06;;;;;;;4.57;4.28;;;;;;;;;;5027543;28;20045;-83
2022/07/02 06:46:34;;;;;;;4.57;4.20;;;;;;;;;;5043621;28;20041;-84
2022/07/02 06:49:02;;;;;;;4.47;4.07;;;;;;;;;;5027380;28;20092;-84
2022/07/02 06:51:29;;;;;;;4.25;3.95;;;;;;;;;;5025307;28;20052;-84
2022/07/02 06:54:00;;;;;;;4.28;3.97;;;;;;;;;;5026772;28;20053;-83
2022/07/02 06:56:28;;;;;;;4.45;3.83;;;;;;;;;;5026885;28;20046;-84
2022/07/02 06:58:56;;;;;;;3.35;3.15;;;;;;;;;;5030470;28;20045;-84
2022/07/02 07:01:25;;;;;;;4.18;3.85;;;;;;;;;;5029982;28;20641;-83
2022/07/02 07:03:52;;;;;;;3.92;3.72;;;;;;;;;;5043357;28;20053;-84
2022/07/02 07:06:26;;;;;;;7.30;3.60;;;;;;;;;;5030697;28;20130;-85
2022/07/02 07:08:54;;;;;;;3.38;3.17;;;;;;;;;;5029368;28;20037;-84
2022/07/02 07:11:21;;;;;;;3.05;2.90;;;;;;;;;;5028364;28;20056;-84
2022/07/02 07:13:49;;;;;;;3.33;3.13;;;;;;;;;;5044346;28;20033;-84
2022/07/02 07:16:17;;;;;;;3.08;2.88;;;;;;;;;;5036382;28;20049;-84
2022/07/02 07:18:48;;;;;;;3.20;2.97;;;;;;;;;;5029443;28;20041;-84
2022/07/02 07:21:15;;;;;;;3.70;3.40;;;;;;;;;;5029225;28;20044;-85
2022/07/02 07:23:42;;;;;;;2.83;2.63;;;;;;;;;;5046650;28;20123;-85
2022/07/02 07:26:11;;;;;;;2.60;2.50;;;;;;;;;;5030611;28;20056;-84
2022/07/02 07:28:39;;;;;;;2.75;2.50;;;;;;;;;;5031891;28;20454;-84
2022/07/02 07:31:06;;;;;;;4.70;2.17;;;;;;;;;;5030409;28;20067;-84
2022/07/02 07:33:33;;;;;;;2.25;2.03;;;;;;;;;;5029314;28;20049;-84
2022/07/02 07:36:01;;;;;;;2.30;2.10;;;;;;;;;;5045089;28;20065;-83
2022/07/02 07:38:28;;;;;;;2.53;2.35;;;;;;;;;;5044000;28;20042;-84
2022/07/02 07:40:56;;;;;;;4.30;2.20;;;;;;;;;;5043883;28;20064;-83
2022/07/02 07:43:23;;;;;;;2.33;2.22;;;;;;;;;;5042689;28;20052;-84
2022/07/02 07:45:54;;;;;;;3.60;2.30;;;;;;;;;;5043098;28;20045;-84
2022/07/02 07:48:21;;;;;;;3.28;1.98;;;;;;;;;;5042954;28;20522;-84
2022/07/02 07:50:49;;;;;;;2.08;1.98;;;;;;;;;;5043676;28;20706;-83
2022/07/02 07:53:16;;;;;;;1.73;1.63;;;;;;;;;;5028516;28;20048;-84
2022/07/02 07:55:45;;;;;;;1.73;1.73;;;;;;;;;;5030160;28;20045;-84
2022/07/02 07:58:13;;;;;;;2.55;1.58;;;;;;;;;;5044694;28;20053;-84
2022/07/02 08:00:40;;;;;;;1.67;1.45;;;;;;;;;;5045300;28;20087;-84
2022/07/02 08:03:08;;;;;;;1.63;1.52;;;;;;;;;;5030965;28;20044;-84
2022/07/02 08:05:35;;;;;;;1.60;1.50;;;;;;;;;;5045261;28;20141;-84
2022/07/02 08:08:03;;;;;;;3.83;1.85;;;;;;;;;;5044773;28;20519;-84
2022/07/02 08:10:30;;;;;;;2.17;1.88;;;;;;;;;;5045901;28;20049;-85
2022/07/02 08:12:58;;;;;;;1.63;1.63;;;;;;;;;;5041237;28;20054;-84
2022/07/02 08:15:41;;;;;;;1.88;1.70;;;;;;;;;;5040871;28;20049;-85
2022/07/02 08:18:20;;;;;;;3.17;1.63;;;;;;;;;;5037095;28;20049;-85
2022/07/02 08:20:50;;;;;;;1.88;1.77;;;;;;;;;;5008903;28;20172;-84
2022/07/02 08:23:21;;;;;;;1.88;1.63;;;;;;;;;;5028275;28;20064;-85
2022/07/02 08:25:49;;;;;;;1.70;1.60;;;;;;;;;;5044752;28;20122;-85
2022/07/02 08:28:17;;;;;;;1.92;1.70;;;;;;;;;;5032931;28;20045;-84
2022/07/02 08:30:46;;;;;;;1.58;1.50;;;;;;;;;;5044744;28;20049;-85
2022/07/02 08:33:18;;;;;;;1.75;1.67;;;;;;;;;;5015120;28;20060;-86
2022/07/02 08:35:46;;;;;;;2.08;1.85;;;;;;;;;;5031701;28;20057;-84
2022/07/02 08:38:13;;;;;;;1.60;1.50;;;;;;;;;;5029869;28;20508;-84
2022/07/02 08:40:44;;;;;;;1.88;1.77;;;;;;;;;;5040320;28;20087;-84
2022/07/02 08:43:12;;;;;;;1.40;1.30;;;;;;;;;;5035229;28;20440;-84
2022/07/02 08:48:34;;;;;;;2.15;1.30;;;;;;;;;;5007880;28;20389;-84
2022/07/02 08:51:01;;;;;;;4.50;1.40;;;;;;;;;;5041993;28;20412;-85
2022/07/02 08:53:29;;;;;;;7.55;1.40;;;;;;;;;;5026571;28;20060;-84
2022/07/02 08:55:57;;;;;;;1.30;1.30;;;;;;;;;;5014518;22;20041;-78
2022/07/02 08:58:25;;;;;;;1.15;1.15;;;;;;;;;;5025388;28;20587;-78
2022/07/02 09:00:53;;;;;;;1.25;1.15;;;;;;;;;;4981021;28;20114;-78
2022/07/02 09:03:21;;;;;;;1.38;1.27;;;;;;;;;;4989286;28;20482;-78
2022/07/02 09:05:52;;;;;;;5.05;1.48;;;;;;;;;;5002175;28;20125;-79
2022/07/02 09:08:22;;;;;;;1.90;1.20;;;;;;;;;;5018447;28;20285;-78
2022/07/02 09:10:51;;;;;;;1.90;1.40;;;;;;;;;;5005286;28;20096;-79
2022/07/02 09:13:18;;;;;;;1.42;1.20;;;;;;;;;;5003921;28;20417;-79
2022/07/02 09:15:46;;;;;;;1.35;1.23;;;;;;;;;;5004648;28;20045;-78
2022/07/02 09:18:13;;;;;;;2.90;1.30;;;;;;;;;;5002681;28;20053;-78
2022/07/02 09:20:41;;;;;;;1.95;1.40;;;;;;;;;;4988799;28;20050;-79
2022/07/02 09:23:09;;;;;;;1.42;1.10;;;;;;;;;;5003417;28;20510;-79
2022/07/02 09:25:37;;;;;;;1.40;1.30;;;;;;;;;;5019981;28;20092;-79
2022/07/02 09:28:05;;;;;;;1.48;1.15;;;;;;;;;;5001286;28;20771;-79
2022/07/02 09:30:37;;;;;;;1.25;1.10;;;;;;;;;;5007881;28;20133;-79
2022/07/02 09:33:36;;;;;;;3.03;1.02;;;;;;;;;;5002015;28;20058;-79
2022/07/02 09:36:11;;;;;;;2.58;1.10;;;;;;;;;;5017522;28;20042;-79
2022/07/02 09:38:42;;;;;;;0.90;0.90;;;;;;;;;;5000170;28;20128;-79
2022/07/02 09:41:14;;;;;;;1.00;1.00;;;;;;;;;;5005294;28;20490;-80
2022/07/02 09:43:42;;;;;;;1.10;1.00;;;;;;;;;;5020553;28;20030;-79
2022/07/02 09:46:16;;;;;;;1.10;1.00;;;;;;;;;;5008188;28;20128;-80
2022/07/02 09:48:45;;;;;;;0.93;0.90;;;;;;;;;;5020297;28;20049;-79
2022/07/02 09:51:12;;;;;;;1.00;0.95;;;;;;;;;;5002433;28;20052;-79
2022/07/02 09:53:49;;;;;;;0.70;0.70;;;;;;;;;;4989922;28;20152;-80
2022/07/02 09:56:16;;;;;;;1.65;0.80;;;;;;;;;;5005307;28;20108;-79
2022/07/02 09:58:44;;;;;;;1.35;0.75;;;;;;;;;;5004403;28;20156;-79
2022/07/02 10:01:11;;;;;;;0.75;0.63;;;;;;;;;;5007684;28;20062;-79
2022/07/02 10:03:46;;;;;;;1.75;0.63;;;;;;;;;;4978816;28;20493;-79
2022/07/02 10:06:14;;;;;;;0.70;0.70;;;;;;;;;;4989736;28;20041;-80
2022/07/02 10:08:42;;;;;;;0.68;0.60;;;;;;;;;;5001614;28;20506;-79
2022/07/02 10:11:12;;;;;;;0.70;0.70;;;;;;;;;;4984577;28;20056;-79
2022/07/02 10:13:40;;;;;;;1.08;0.65;;;;;;;;;;5015274;28;20046;-79
2022/07/02 10:16:17;;;;;;;0.60;0.60;;;;;;;;;;5017236;28;20045;-79
2022/07/02 10:18:45;;;;;;;0.60;0.60;;;;;;;;;;5023136;28;20037;-80
2022/07/02 10:21:13;;;;;;;0.80;0.65;;;;;;;;;;5000329;28;20037;-79
2022/07/02 10:23:43;;;;;;;0.95;0.50;;;;;;;;;;5003273;28;20041;-79
2022/07/02 10:26:11;;;;;;;0.85;0.60;;;;;;;;;;4995197;28;20140;-79
2022/07/02 10:28:39;;;;;;;2.50;1.27;;;;;;;;;;4984467;28;20044;-79
2022/07/02 10:31:07;;;;;;;1.08;0.70;;;;;;;;;;5008914;28;20198;-80
2022/07/02 10:33:50;;;;;;;1.35;0.70;;;;;;;;;;4990597;28;20049;-79
2022/07/02 10:36:18;;;;;;;3.00;0.52;;;;;;;;;;5008265;28;20053;-79
2022/07/02 10:38:46;;;;;;;1.90;0.75;;;;;;;;;;4996067;28;20049;-79
2022/07/02 10:41:24;;;;;;;0.52;0.52;;;;;;;;;;5006595;28;20373;-79
2022/07/02 10:43:54;;;;;;;2.35;0.70;;;;;;;;;;5001330;28;20034;-78
2022/07/02 10:46:24;;;;;;;0.60;0.60;;;;;;;;;;4966142;28;20116;-79
2022/07/02 10:48:53;;;;;;;2.50;0.57;;;;;;;;;;4988685;28;20125;-78
2022/07/02 10:51:23;;;;;;;1.75;0.68;;;;;;;;;;5009016;28;20058;-78
2022/07/02 10:53:52;;;;;;;0.77;0.70;;;;;;;;;;5000043;28;20074;-79
2022/07/02 10:56:19;;;;;;;0.70;0.70;;;;;;;;;;4991583;28;20445;-79
2022/07/02 10:58:47;;;;;;;0.68;0.68;;;;;;;;;;5017565;28;20057;-78
2022/07/02 11:01:18;;;;;;;0.68;0.68;;;;;;;;;;5000405;28;20042;-79
2022/07/02 11:03:53;;;;;;;0.43;0.43;;;;;;;;;;5000086;28;20521;-77
2022/07/02 11:06:22;;;;;;;0.73;0.73;;;;;;;;;;5006147;28;20056;-79
2022/07/02 11:08:52;;;;;;;1.25;0.55;;;;;;;;;;5005828;28;20041;-79
2022/07/02 11:11:40;;;;;;;0.88;0.60;;;;;;;;;;4981952;28;20124;-79
2022/07/02 11:14:12;;;;;;;0.77;0.52;;;;;;;;;;5012683;28;20251;-80
2022/07/02 11:16:46;;;;;;;0.60;0.60;;;;;;;;;;4956410;28;20054;-79
2022/07/02 11:19:17;;;;;;;0.40;0.40;;;;;;;;;;5008807;28;20137;-78
2022/07/02 11:21:45;;;;;;;;;;;;;;;;;;4986643;28;20494;-78
2022/07/02 11:24:15;;;;;;;2.67;0.70;;;;;;;;;;4990609;28;20555;-78
2022/07/02 11:26:43;;;;;;;0.60;0.60;;;;;;;;;;5012735;28;20121;-78
2022/07/02 11:29:10;;;;;;;0.50;0.50;;;;;;;;;;5002282;28;20053;-79
2022/07/02 11:31:42;;;;;;;1.48;0.68;;;;;;;;;;4981009;28;20429;-80
2022/07/02 11:34:10;;;;;;;0.70;0.70;;;;;;;;;;4998452;28;20073;-78
2022/07/02 11:36:38;;;;;;;0.75;0.75;;;;;;;;;;5012961;28;20038;-79
2022/07/02 11:39:13;;;;;;;0.70;0.70;;;;;;;;;;5024836;28;20502;-79
2022/07/02 11:41:41;;;;;;;0.50;0.50;;;;;;;;;;5000526;28;20045;-79
2022/07/02 11:44:15;;;;;;;0.50;0.50;;;;;;;;;;4979289;28;20077;-79
2022/07/02 11:46:44;;;;;;;1.80;0.50;;;;;;;;;;5015629;28;20037;-79
2022/07/02 11:49:15;;;;;;;0.70;0.57;;;;;;;;;;5001510;28;20422;-79
2022/07/02 11:51:44;;;;;;;2.92;0.80;;;;;;;;;;4996304;28;20387;-79
2022/07/02 11:54:13;;;;;;;1.05;0.50;;;;;;;;;;4986144;28;20046;-78
2022/07/02 11:56:41;;;;;;;0.50;0.50;;;;;;;;;;5005635;28;20088;-79
2022/07/02 11:59:16;;;;;;;2.10;0.45;;;;;;;;;;4993264;28;20050;-79
2022/07/02 12:01:45;;;;;;;0.73;0.50;;;;;;;;;;5022253;28;20033;-79
2022/07/02 12:04:13;;;;;;;0.52;0.52;;;;;;;;;;5026336;28;20053;-79
2022/07/02 12:06:57;;;;;;;0.57;0.40;;;;;;;;;;5017600;28;20044;-79
2022/07/02 12:09:26;;;;;;;0.77;0.47;;;;;;;;;;4975375;28;20046;-79
2022/07/02 12:11:56;;;;;;;0.63;0.40;;;;;;;;;;5000533;28;20049;-79
2022/07/02 12:14:25;;;;;;;0.43;0.43;;;;;;;;;;5022690;28;20045;-79
2022/07/02 12:16:56;;;;;;;0.60;0.52;;;;;;;;;;4998915;28;20049;-79
2022/07/02 12:19:31;;;;;;;2.63;0.75;;;;;;;;;;5020872;28;20045;-79
2022/07/02 12:21:59;;;;;;;0.50;0.50;;;;;;;;;;5030346;28;20056;-79
2022/07/02 12:24:31;;;;;;;0.73;0.57;;;;;;;;;;4991078;28;20073;-79
2022/07/02 12:26:59;;;;;;;0.95;0.50;;;;;;;;;;5008133;28;20073;-79
2022/07/02 12:32:27;;;;;;;0.50;0.50;;;;;;;;;;5011779;28;20049;-78
2022/07/02 12:34:54;;;;;;;;;;;;;;;;;;5019973;28;20052;-79
2022/07/02 12:37:29;;;;;;;0.47;0.40;;;;;;;;;;5008899;28;19925;-78
2022/07/02 12:39:58;;;;;;;0.75;0.50;;;;;;;;;;5000619;28;20319;-77
2022/07/02 12:42:25;;;;;;;0.50;0.50;;;;;;;;;;4994455;28;20046;-79
2022/07/02 12:44:56;;;;;;;0.57;0.57;;;;;;;;;;5007146;28;20033;-79
2022/07/02 12:47:23;;;;;;;;;;;;;;;;;;4990153;28;20045;-79
2022/07/02 12:49:55;;;;;;;0.35;0.30;;;;;;;;;;4992731;28;20400;-78
2022/07/02 12:52:23;;;;;;;0.50;0.50;;;;;;;;;;5007856;28;20499;-78
2022/07/02 12:54:51;;;;;;;0.45;0.45;;;;;;;;;;5007389;28;20041;-80
2022/07/02 12:57:22;;;;;;;2.38;0.50;;;;;;;;;;4981670;28;20576;-80
2022/07/02 12:59:52;;;;;;;0.55;0.30;;;;;;;;;;5016128;28;20105;-80
2022/07/02 13:02:28;;;;;;;1.10;0.30;;;;;;;;;;5017007;28;20142;-80
2022/07/02 13:04:56;;;;;;;1.20;0.57;;;;;;;;;;4997312;28;20077;-79
2022/07/02 13:07:24;;;;;;;0.75;0.75;;;;;;;;;;5020274;28;20030;-81
2022/07/02 13:09:51;;;;;;;0.35;0.35;;;;;;;;;;5018239;28;20049;-80
2022/07/02 13:12:19;;;;;;;1.05;0.60;;;;;;;;;;5043456;28;20500;-83
2022/07/02 13:14:46;;;;;;;0.55;0.50;;;;;;;;;;5014258;28;20065;-81
2022/07/02 13:17:16;;;;;;;0.50;0.50;;;;;;;;;;5028627;28;20050;-80
2022/07/02 13:20:04;;;;;;;0.50;0.50;;;;;;;;;;5020271;28;20040;-80
2022/07/02 13:22:32;;;;;;;0.40;0.40;;;;;;;;;;5017962;28;20045;-80
2022/07/02 13:24:59;;;;;;;0.50;0.50;;;;;;;;;;4998258;28;20045;-80
2022/07/02 13:27:26;;;;;;;0.55;0.55;;;;;;;;;;5005503;28;20049;-82
2022/07/02 13:29:54;;;;;;;0.40;0.40;;;;;;;;;;5002388;28;20122;-80
2022/07/02 13:32:21;;;;;;;0.73;0.73;;;;;;;;;;5016531;28;20045;-79
2022/07/02 13:34:52;;;;;;;0.50;0.50;;;;;;;;;;5024170;28;20058;-81
2022/07/02 13:37:20;;;;;;;1.08;0.40;;;;;;;;;;4981858;28;20050;-81
2022/07/02 13:39:48;;;;;;;0.57;0.40;;;;;;;;;;5034507;22;20051;-80
2022/07/02 13:42:31;;;;;;;1.08;0.50;;;;;;;;;;5012940;28;20108;-80
2022/07/02 13:44:58;;;;;;;2.22;0.60;;;;;;;;;;5009753;28;20079;-79
2022/07/02 13:47:26;;;;;;;0.80;0.40;;;;;;;;;;5041575;28;20037;-81
2022/07/02 13:49:53;;;;;;;0.50;0.50;;;;;;;;;;5016193;28;20083;-80
2022/07/02 13:52:21;;;;;;;0.45;0.45;;;;;;;;;;5028794;28;20060;-81
2022/07/02 13:54:50;;;;;;;0.68;0.68;;;;;;;;;;5020160;28;20061;-80
2022/07/02 13:57:18;;;;;;;0.60;0.60;;;;;;;;;;5041795;28;20083;-80
2022/07/02 13:59:45;;;;;;;0.50;0.47;;;;;;;;;;5040779;28;20168;-80
2022/07/02 14:02:13;;;;;;;0.50;0.50;;;;;;;;;;5035797;28;20512;-80
2022/07/02 14:04:41;;;;;;;0.50;0.50;;;;;;;;;;5033766;28;20038;-81
2022/07/02 14:07:09;;;;;;;0.47;0.45;;;;;;;;;;5004531;28;20045;-80
2022/07/02 14:09:37;;;;;;;0.50;0.50;;;;;;;;;;5021131;28;20140;-80
2022/07/02 14:12:06;;;;;;;1.30;0.70;;;;;;;;;;5041836;28;20043;-81
2022/07/02 14:14:34;;;;;;;0.90;0.60;;;;;;;;;;5007680;28;20080;-81
2022/07/02 14:17:02;;;;;;;4.00;0.60;;;;;;;;;;5040455;28;20132;-80
2022/07/02 14:19:30;;;;;;;0.50;0.50;;;;;;;;;;5039883;28;20044;-80
2022/07/02 14:21:58;;;;;;;1.52;0.80;;;;;;;;;;5010371;28;20433;-81
2022/07/02 14:24:25;;;;;;;0.60;0.40;;;;;;;;;;5032428;28;20131;-81
2022/07/02 14:26:53;;;;;;;0.60;0.43;;;;;;;;;;5016501;28;20053;-80
2022/07/02 14:29:20;;;;;;;3.10;0.50;;;;;;;;;;5039844;28;20121;-81
2022/07/02 14:31:50;;;;;;;2.40;0.40;;;;;;;;;;5038638;28;20486;-80
2022/07/02 14:34:19;;;;;;;1.45;0.40;;;;;;;;;;5033458;28;20084;-80
2022/07/02 14:36:47;;;;;;;1.35;0.50;;;;;;;;;;5037297;28;20387;-79
2022/07/02 14:39:15;;;;;;;0.43;0.43;;;;;;;;;;5018152;28;20159;-80
2022/07/02 14:41:44;;;;;;;0.52;0.52;;;;;;;;;;4994010;28;20067;-80
2022/07/02 14:44:12;;;;;;;3.55;0.63;;;;;;;;;;5020031;28;20063;-80
2022/07/02 14:46:40;;;;;;;0.63;0.40;;;;;;;;;;5037057;28;20100;-81
2022/07/02 14:49:08;;;;;;;0.47;0.45;;;;;;;;;;5006786;28;20071;-81
2022/07/02 14:51:35;;;;;;;0.50;0.50;;;;;;;;;;5019703;28;20052;-81
2022/07/02 14:54:03;;;;;;;0.40;0.40;;;;;;;;;;5021382;28;20059;-81
2022/07/02 14:56:34;;;;;;;0.50;0.50;;;;;;;;;;5019742;28;20229;-81
2022/07/02 14:59:01;;;;;;;0.57;0.50;;;;;;;;;;4991182;28;20041;-81
2022/07/02 15:01:30;;;;;;;0.40;0.40;;;;;;;;;;5007227;28;20090;-81
2022/07/02 15:03:57;;;;;;;0.50;0.50;;;;;;;;;;5031753;28;20421;-81
2022/07/02 15:06:25;;;;;;;0.50;0.40;;;;;;;;;;5036234;28;20508;-81